Shokyu Maru — JG5288 — position and weather

sailwx.info

Track history (hours):
 
Tides and Currents Weather Stations Pressure Air Temp Water Temp Dewpoint Dewpoint Depression Visibility Wind Speed Wind Dir Waves Ship Positions

Shokyu Maru

Last reported at 2014-Aug-01 03:33 UTC. Time now 2014-Aug-01 03:49 UTC.
Position N 35°36' E 139°58'.

Length 91 m; draft 4 m.

Type: Tanker. MMSI: 431000253.

Date/timePositionNaut miles runAvg speedWind from/ knotsBaromVisibWave heightAir tempDewpointWater temp
2014-Aug-01 03:33N 35°36' E 139°58'5 4.4
2014-Aug-01 02:30N 35°41' E 139°59'0 0.0
2014-Aug-01 01:33N 35°41' E 139°59'0 0.0
2014-Aug-01 00:30N 35°41' E 139°59'0 0.0
2014-Jul-31 23:33N 35°41' E 139°59'0 0.0
2014-Jul-31 22:24N 35°41' E 139°59'0 0.0
2014-Jul-31 21:33N 35°41' E 139°59'0 0.0
2014-Jul-31 20:33N 35°41' E 139°59'0 0.0
2014-Jul-31 19:27N 35°41' E 139°59'0 0.0
2014-Jul-31 18:33N 35°41' E 139°59'0 0.0
2014-Jul-31 17:33N 35°41' E 139°59'0 0.0
2014-Jul-31 16:33N 35°41' E 139°59'0 0.0
2014-Jul-31 15:33N 35°41' E 139°59'0 0.0
2014-Jul-31 14:33N 35°41' E 139°59'0 0.0
2014-Jul-31 13:33N 35°41' E 139°59'0 0.0
2014-Jul-31 12:33N 35°41' E 139°59'0 0.0
2014-Jul-31 11:33N 35°41' E 139°59'0 0.0
2014-Jul-31 10:33N 35°41' E 139°59'0 0.0
2014-Jul-31 09:33N 35°41' E 139°59'0 0.0
2014-Jul-31 08:33N 35°41' E 139°59'0 0.0
2014-Jul-31 07:33N 35°41' E 139°59'0 0.0
2014-Jul-31 06:33N 35°41' E 139°59'0 0.0
2014-Jul-31 05:33N 35°41' E 139°59'3 3.4
2014-Jul-31 04:34N 35°37' E 139°59'4 3.8
2014-Jul-31 03:34N 35°40' E 139°57'0 0.1
2014-Jul-31 02:32N 35°41' E 139°56'0 0.0
2014-Jul-31 01:32N 35°41' E 139°56'0 0.0
2014-Jul-31 00:29N 35°41' E 139°56'4 4.6
2014-Jul-30 23:33N 35°36' E 139°56'1 1.2
2014-Jul-30 22:33N 35°35' E 139°55'0 0.0
2014-Jul-30 21:24N 35°35' E 139°55'0 0.0
2014-Jul-30 20:30N 35°35' E 139°55'0 0.0
2014-Jul-30 19:33N 35°35' E 139°55'0 0.0
2014-Jul-30 18:30N 35°35' E 139°55'0 0.0
2014-Jul-30 17:33N 35°35' E 139°55'0 0.0
2014-Jul-30 16:30N 35°35' E 139°55'0 0.0
2014-Jul-30 15:30N 35°35' E 139°55'0 0.0
2014-Jul-30 14:27N 35°35' E 139°55'0 0.0
2014-Jul-30 13:30N 35°35' E 139°55'0 0.0
2014-Jul-30 12:21N 35°35' E 139°55'0 0.0
2014-Jul-30 11:33N 35°35' E 139°55'0 0.1
2014-Jul-30 10:33N 35°35' E 139°55'7 7.5
2014-Jul-30 09:34N 35°31' E 140°02'0 0.1
2014-Jul-30 08:33N 35°31' E 140°03'0 0.0
2014-Jul-30 07:33N 35°31' E 140°03'0 0.0
2014-Jul-30 06:30N 35°31' E 140°03'0 0.0
2014-Jul-30 05:33N 35°31' E 140°03'0 0.0
2014-Jul-30 04:33N 35°31' E 140°03'0 0.0
2014-Jul-30 03:33N 35°31' E 140°03'7 7.2
2014-Jul-30 02:34N 35°37' E 139°59'4 3.4
2014-Jul-30 01:25N 35°41' E 139°56'0 0.0
2014-Jul-30 00:31N 35°41' E 139°56'0 0.0
2014-Jul-29 23:31N 35°41' E 139°56'0 0.0
2014-Jul-29 22:25N 35°41' E 139°56'2 1.9
2014-Jul-29 21:33N 35°39' E 139°58'4 4.2
2014-Jul-29 20:31N 35°36' E 139°55'0 0.0
2014-Jul-29 19:31N 35°36' E 139°55'0 0.0
2014-Jul-29 18:31N 35°36' E 139°55'0 0.0
2014-Jul-29 17:31N 35°36' E 139°55'0 0.0
2014-Jul-29 16:31N 35°36' E 139°55'0 0.0
2014-Jul-29 15:31N 35°36' E 139°55'0 0.0
2014-Jul-29 14:28N 35°36' E 139°55'0 0.0
2014-Jul-29 13:31N 35°36' E 139°55'0 0.0
2014-Jul-29 12:31N 35°35' E 139°55'6 6.1
2014-Jul-29 11:33N 35°30' E 139°59'3 2.5
2014-Jul-29 10:31N 35°28' E 140°01'0 0.0
2014-Jul-29 09:28N 35°28' E 140°01'0 0.0
2014-Jul-29 08:31N 35°28' E 140°01'0 0.0
2014-Jul-29 07:28N 35°28' E 140°01'0 0.1
2014-Jul-29 06:32N 35°28' E 140°01'3 3.5
2014-Jul-29 05:33N 35°31' E 139°58'5 4.4
2014-Jul-29 04:31N 35°35' E 139°55'3 3.3
2014-Jul-29 03:33N 35°37' E 139°58'3 3.3
2014-Jul-29 02:29N 35°41' E 139°56'0 0.0
2014-Jul-29 01:29N 35°41' E 139°56'0 0.0
2014-Jul-29 00:18N 35°41' E 139°56'0 0.6
2014-Jul-28 23:33N 35°40' E 139°57'5 5.3
2014-Jul-28 22:33N 35°35' E 139°55'0 0.0
2014-Jul-28 21:30N 35°35' E 139°55'0 0.0
2014-Jul-28 20:30N 35°35' E 139°55'0 0.1
2014-Jul-28 19:33N 35°35' E 139°55'0 0.0
2014-Jul-28 18:15N 35°35' E 139°55'0 0.0
2014-Jul-28 17:33N 35°35' E 139°55'0 0.0
2014-Jul-28 16:27N 35°35' E 139°55'0 0.0
2014-Jul-28 15:33N 35°35' E 139°55'0 0.0
2014-Jul-28 14:33N 35°35' E 139°55'0 0.1
2014-Jul-28 13:30N 35°35' E 139°55'0 0.0
2014-Jul-28 12:24N 35°35' E 139°55'0 0.1
2014-Jul-28 11:33N 35°35' E 139°55'3 3.0
2014-Jul-28 10:33N 35°33' E 139°57'5 5.0
2014-Jul-28 09:31N 35°29' E 140°01'0 0.0
2014-Jul-28 08:28N 35°29' E 140°01'0 0.0
2014-Jul-28 07:28N 35°29' E 140°01'0 0.0
2014-Jul-28 06:25N 35°29' E 140°01'0 0.0
2014-Jul-28 05:31N 35°29' E 140°01'0 0.0
2014-Jul-28 04:31N 35°29' E 140°01'0 0.1
2014-Jul-28 03:33N 35°29' E 140°01'8 8.3
2014-Jul-28 02:33N 35°37' E 139°58'4 3.9
2014-Jul-28 01:31N 35°41' E 139°56'0 0.0
2014-Jul-28 00:22N 35°41' E 139°56'0 0.0
2014-Jul-27 23:31N 35°41' E 139°56'0 0.0
2014-Jul-27 22:31N 35°41' E 139°56'2 1.7
2014-Jul-27 21:33N 35°39' E 139°58'5 4.4
2014-Jul-27 20:32N 35°36' E 139°55'0 0.0
2014-Jul-27 19:32N 35°35' E 139°55'0 0.1
2014-Jul-27 18:23N 35°36' E 139°55'0 0.0
2014-Jul-27 17:32N 35°36' E 139°55'0 0.0
2014-Jul-27 16:29N 35°36' E 139°55'0 0.1
2014-Jul-27 15:32N 35°36' E 139°55'0 0.0
2014-Jul-27 14:32N 35°36' E 139°55'0 0.0
2014-Jul-27 13:32N 35°36' E 139°55'0 0.0
2014-Jul-27 12:29N 35°35' E 139°55'0 0.0
2014-Jul-27 11:29N 35°35' E 139°55'1 0.7
2014-Jul-27 10:33N 35°35' E 139°54'8 7.9
2014-Jul-27 09:33N 35°30' E 139°46'1 1.0
2014-Jul-27 08:34N 35°30' E 139°45'0 0.0
2014-Jul-27 07:34N 35°30' E 139°45'0 0.0
2014-Jul-27 06:34N 35°30' E 139°45'0 0.0
2014-Jul-27 05:28N 35°30' E 139°45'0 0.0
2014-Jul-27 04:31N 35°30' E 139°45'3 3.0
2014-Jul-27 03:33N 35°27' E 139°45'5 4.6
2014-Jul-27 02:33N 35°29' E 139°50'7 7.0
2014-Jul-27 01:33N 35°35' E 139°55'6 5.7
2014-Jul-27 00:33N 35°41' E 139°56'0 0.0
2014-Jul-26 23:33N 35°41' E 139°56'0 0.0
2014-Jul-26 22:33N 35°41' E 139°56'2 1.5
2014-Jul-26 21:33N 35°39' E 139°58'4 4.0
2014-Jul-26 20:33N 35°36' E 139°55'0 0.0
2014-Jul-26 19:33N 35°36' E 139°55'0 0.0
2014-Jul-26 18:34N 35°36' E 139°55'0 0.0
2014-Jul-26 17:34N 35°36' E 139°55'0 0.0
2014-Jul-26 16:33N 35°36' E 139°55'0 0.0
2014-Jul-26 15:34N 35°36' E 139°55'0 0.0
2014-Jul-26 14:33N 35°36' E 139°55'0 0.0
2014-Jul-26 13:34N 35°36' E 139°55'0 0.0
2014-Jul-26 12:33N 35°36' E 139°55'0 0.0
2014-Jul-26 11:34N 35°36' E 139°55'0 0.0
2014-Jul-26 10:34N 35°36' E 139°55'0 0.0
2014-Jul-26 09:34N 35°36' E 139°55'7 7.1
2014-Jul-26 08:33N 35°31' E 139°49'4 3.5
2014-Jul-26 07:33N 35°30' E 139°45'0 0.0
2014-Jul-26 06:33N 35°30' E 139°45'0 0.0
2014-Jul-26 05:33N 35°30' E 139°45'3 3.4
2014-Jul-26 04:34N 35°27' E 139°43'8 8.3
2014-Jul-26 03:33N 35°31' E 139°52'9 8.8
2014-Jul-26 02:33N 35°39' E 139°58'3 2.5
2014-Jul-26 01:33N 35°41' E 139°56'0 0.0
2014-Jul-26 00:33N 35°41' E 139°56'0 0.0
2014-Jul-25 23:33N 35°41' E 139°56'0 0.0
2014-Jul-25 22:27N 35°41' E 139°56'2 2.7
2014-Jul-25 21:33N 35°39' E 139°58'4 4.0
2014-Jul-25 20:32N 35°36' E 139°55'0 0.0
2014-Jul-25 19:23N 35°36' E 139°55'0 0.0
2014-Jul-25 18:32N 35°36' E 139°55'0 0.0
2014-Jul-25 17:32N 35°36' E 139°55'0 0.0
2014-Jul-25 16:29N 35°36' E 139°55'0 0.0
2014-Jul-25 15:32N 35°36' E 139°55'0 0.0
2014-Jul-25 14:32N 35°36' E 139°55'0 0.0
2014-Jul-25 13:29N 35°36' E 139°55'0 0.0
2014-Jul-25 12:32N 35°36' E 139°55'0 0.0
2014-Jul-25 11:32N 35°36' E 139°55'0 0.0
2014-Jul-25 10:32N 35°36' E 139°55'0 0.0
2014-Jul-25 09:29N 35°36' E 139°55'0 0.0
2014-Jul-25 08:26N 35°36' E 139°55'0 0.0
2014-Jul-25 07:32N 35°36' E 139°55'0 0.0
2014-Jul-25 06:33N 35°36' E 139°55'3 2.8
2014-Jul-25 05:33N 35°33' E 139°53'7 6.7
2014-Jul-25 04:31N 35°30' E 139°45'0 0.0
2014-Jul-25 03:31N 35°30' E 139°45'0 0.0
2014-Jul-25 02:31N 35°30' E 139°45'0 0.0
2014-Jul-25 01:31N 35°30' E 139°45'0 0.0
2014-Jul-25 00:31N 35°30' E 139°45'4 3.8
2014-Jul-24 23:33N 35°27' E 139°43'4 3.5
2014-Jul-24 22:32N 35°29' E 139°39'0 0.0
2014-Jul-24 21:32N 35°29' E 139°39'0 0.0
2014-Jul-24 20:32N 35°29' E 139°39'0 0.0
2014-Jul-24 19:32N 35°29' E 139°39'0 0.0
2014-Jul-24 18:32N 35°29' E 139°39'0 0.0
2014-Jul-24 17:32N 35°29' E 139°39'0 0.0
2014-Jul-24 16:32N 35°29' E 139°39'0 0.0
2014-Jul-24 15:32N 35°29' E 139°39'0 0.0
2014-Jul-24 14:32N 35°29' E 139°39'0 0.0
2014-Jul-24 13:32N 35°29' E 139°39'0 0.0
2014-Jul-24 12:32N 35°29' E 139°39'0 0.0
2014-Jul-24 11:32N 35°29' E 139°39'0 0.0
2014-Jul-24 10:32N 35°29' E 139°39'0 0.0
2014-Jul-24 09:32N 35°29' E 139°39'0 0.0
2014-Jul-24 08:32N 35°29' E 139°39'0 0.0
2014-Jul-24 07:32N 35°29' E 139°39'0 0.0
2014-Jul-24 06:32N 35°29' E 139°39'0 0.0
2014-Jul-24 05:32N 35°29' E 139°39'0 0.2
2014-Jul-24 04:34N 35°28' E 139°39'9 8.5
2014-Jul-24 03:34N 35°29' E 139°50'1010.0
2014-Jul-24 02:34N 35°37' E 139°57'4 3.7
2014-Jul-24 01:29N 35°41' E 139°56'0 0.0
2014-Jul-24 00:32N 35°41' E 139°56'0 0.0
2014-Jul-23 23:32N 35°41' E 139°56'0 0.0
2014-Jul-23 22:29N 35°41' E 139°56'2 2.1
2014-Jul-23 21:33N 35°39' E 139°58'4 3.9
2014-Jul-23 20:33N 35°36' E 139°55'0 0.0
2014-Jul-23 19:30N 35°36' E 139°55'0 0.0
2014-Jul-23 18:30N 35°36' E 139°55'0 0.0
2014-Jul-23 17:33N 35°36' E 139°55'0 0.0
2014-Jul-23 16:33N 35°36' E 139°55'0 0.0
2014-Jul-23 15:33N 35°36' E 139°55'0 0.0
2014-Jul-23 14:33N 35°36' E 139°55'0 0.0
2014-Jul-23 13:33N 35°36' E 139°55'0 0.0
2014-Jul-23 12:33N 35°36' E 139°55'0 0.0
2014-Jul-23 11:30N 35°36' E 139°55'0 0.0
2014-Jul-23 10:27N 35°36' E 139°55'4 4.5
2014-Jul-23 09:33N 35°33' E 139°52'6 5.9
2014-Jul-23 08:31N 35°30' E 139°45'0 0.0
2014-Jul-23 07:31N 35°30' E 139°45'0 0.0
2014-Jul-23 06:31N 35°30' E 139°45'0 0.0
2014-Jul-23 05:31N 35°30' E 139°45'0 0.0
2014-Jul-23 04:31N 35°30' E 139°45'3 3.4
2014-Jul-23 03:33N 35°28' E 139°42'7 7.2
2014-Jul-23 02:33N 35°30' E 139°51'10 9.9
2014-Jul-23 01:33N 35°38' E 139°59'3 3.0
2014-Jul-23 00:33N 35°41' E 139°56'0 0.0
2014-Jul-22 23:33N 35°41' E 139°56'0 0.0
2014-Jul-22 22:33N 35°41' E 139°56'2 1.9
2014-Jul-22 21:33N 35°39' E 139°58'4 4.1
2014-Jul-22 20:32N 35°36' E 139°55'0 0.0
2014-Jul-22 19:26N 35°36' E 139°55'0 0.1
2014-Jul-22 18:32N 35°36' E 139°55'0 0.0
2014-Jul-22 17:32N 35°36' E 139°55'0 0.0
2014-Jul-22 16:32N 35°36' E 139°55'0 0.0
2014-Jul-22 15:26N 35°36' E 139°55'0 0.0
2014-Jul-22 14:32N 35°36' E 139°55'0 0.0
2014-Jul-22 13:29N 35°36' E 139°55'0 0.0
2014-Jul-22 12:26N 35°36' E 139°55'0 0.0
2014-Jul-22 11:32N 35°36' E 139°55'0 0.0
2014-Jul-22 10:32N 35°36' E 139°55'0 0.0
2014-Jul-22 09:33N 35°36' E 139°55'7 7.3
2014-Jul-22 08:33N 35°29' E 140°00'1 0.9
2014-Jul-22 07:27N 35°29' E 140°01'0 0.0
2014-Jul-22 06:30N 35°29' E 140°01'0 0.0
2014-Jul-22 05:33N 35°29' E 140°01'0 0.0
2014-Jul-22 04:33N 35°29' E 140°01'  
Track history (hours):
 
Tides and Currents Weather Stations Pressure Air Temp Water Temp Dewpoint Dewpoint Depression Visibility Wind Speed Wind Dir Waves Ship Positions

Shokyu Maru

Last reported at 2014-Aug-01 03:33 UTC. Time now 2014-Aug-01 03:49 UTC.
Position N 35°36' E 139°58'.

Length 91 m; draft 4 m.

Type: Tanker. MMSI: 431000253.

Date/timePositionNaut miles runAvg speedWind from/ knotsBaromVisibWave heightAir tempDewpointWater temp
2014-Aug-01 03:33N 35°36' E 139°58'5 4.4
2014-Aug-01 02:30N 35°41' E 139°59'0 0.0
2014-Aug-01 01:33N 35°41' E 139°59'0 0.0
2014-Aug-01 00:30N 35°41' E 139°59'0 0.0
2014-Jul-31 23:33N 35°41' E 139°59'0 0.0
2014-Jul-31 22:24N 35°41' E 139°59'0 0.0
2014-Jul-31 21:33N 35°41' E 139°59'0 0.0
2014-Jul-31 20:33N 35°41' E 139°59'0 0.0
2014-Jul-31 19:27N 35°41' E 139°59'0 0.0
2014-Jul-31 18:33N 35°41' E 139°59'0 0.0
2014-Jul-31 17:33N 35°41' E 139°59'0 0.0
2014-Jul-31 16:33N 35°41' E 139°59'0 0.0
2014-Jul-31 15:33N 35°41' E 139°59'0 0.0
2014-Jul-31 14:33N 35°41' E 139°59'0 0.0
2014-Jul-31 13:33N 35°41' E 139°59'0 0.0
2014-Jul-31 12:33N 35°41' E 139°59'0 0.0
2014-Jul-31 11:33N 35°41' E 139°59'0 0.0
2014-Jul-31 10:33N 35°41' E 139°59'0 0.0
2014-Jul-31 09:33N 35°41' E 139°59'0 0.0
2014-Jul-31 08:33N 35°41' E 139°59'0 0.0
2014-Jul-31 07:33N 35°41' E 139°59'0 0.0
2014-Jul-31 06:33N 35°41' E 139°59'0 0.0
2014-Jul-31 05:33N 35°41' E 139°59'3 3.4
2014-Jul-31 04:34N 35°37' E 139°59'4 3.8
2014-Jul-31 03:34N 35°40' E 139°57'0 0.1
2014-Jul-31 02:32N 35°41' E 139°56'0 0.0
2014-Jul-31 01:32N 35°41' E 139°56'0 0.0
2014-Jul-31 00:29N 35°41' E 139°56'4 4.6
2014-Jul-30 23:33N 35°36' E 139°56'1 1.2
2014-Jul-30 22:33N 35°35' E 139°55'0 0.0
2014-Jul-30 21:24N 35°35' E 139°55'0 0.0
2014-Jul-30 20:30N 35°35' E 139°55'0 0.0
2014-Jul-30 19:33N 35°35' E 139°55'0 0.0
2014-Jul-30 18:30N 35°35' E 139°55'0 0.0
2014-Jul-30 17:33N 35°35' E 139°55'0 0.0
2014-Jul-30 16:30N 35°35' E 139°55'0 0.0
2014-Jul-30 15:30N 35°35' E 139°55'0 0.0
2014-Jul-30 14:27N 35°35' E 139°55'0 0.0
2014-Jul-30 13:30N 35°35' E 139°55'0 0.0
2014-Jul-30 12:21N 35°35' E 139°55'0 0.0
2014-Jul-30 11:33N 35°35' E 139°55'0 0.1
2014-Jul-30 10:33N 35°35' E 139°55'7 7.5
2014-Jul-30 09:34N 35°31' E 140°02'0 0.1
2014-Jul-30 08:33N 35°31' E 140°03'0 0.0
2014-Jul-30 07:33N 35°31' E 140°03'0 0.0
2014-Jul-30 06:30N 35°31' E 140°03'0 0.0
2014-Jul-30 05:33N 35°31' E 140°03'0 0.0
2014-Jul-30 04:33N 35°31' E 140°03'0 0.0
2014-Jul-30 03:33N 35°31' E 140°03'7 7.2
2014-Jul-30 02:34N 35°37' E 139°59'4 3.4
2014-Jul-30 01:25N 35°41' E 139°56'0 0.0
2014-Jul-30 00:31N 35°41' E 139°56'0 0.0
2014-Jul-29 23:31N 35°41' E 139°56'0 0.0
2014-Jul-29 22:25N 35°41' E 139°56'2 1.9
2014-Jul-29 21:33N 35°39' E 139°58'4 4.2
2014-Jul-29 20:31N 35°36' E 139°55'0 0.0
2014-Jul-29 19:31N 35°36' E 139°55'0 0.0
2014-Jul-29 18:31N 35°36' E 139°55'0 0.0
2014-Jul-29 17:31N 35°36' E 139°55'0 0.0
2014-Jul-29 16:31N 35°36' E 139°55'0 0.0
2014-Jul-29 15:31N 35°36' E 139°55'0 0.0
2014-Jul-29 14:28N 35°36' E 139°55'0 0.0
2014-Jul-29 13:31N 35°36' E 139°55'0 0.0
2014-Jul-29 12:31N 35°35' E 139°55'6 6.1
2014-Jul-29 11:33N 35°30' E 139°59'3 2.5
2014-Jul-29 10:31N 35°28' E 140°01'0 0.0
2014-Jul-29 09:28N 35°28' E 140°01'0 0.0
2014-Jul-29 08:31N 35°28' E 140°01'0 0.0
2014-Jul-29 07:28N 35°28' E 140°01'0 0.1
2014-Jul-29 06:32N 35°28' E 140°01'3 3.5
2014-Jul-29 05:33N 35°31' E 139°58'5 4.4
2014-Jul-29 04:31N 35°35' E 139°55'3 3.3
2014-Jul-29 03:33N 35°37' E 139°58'3 3.3
2014-Jul-29 02:29N 35°41' E 139°56'0 0.0
2014-Jul-29 01:29N 35°41' E 139°56'0 0.0
2014-Jul-29 00:18N 35°41' E 139°56'0 0.6
2014-Jul-28 23:33N 35°40' E 139°57'5 5.3
2014-Jul-28 22:33N 35°35' E 139°55'0 0.0
2014-Jul-28 21:30N 35°35' E 139°55'0 0.0
2014-Jul-28 20:30N 35°35' E 139°55'0 0.1
2014-Jul-28 19:33N 35°35' E 139°55'0 0.0
2014-Jul-28 18:15N 35°35' E 139°55'0 0.0
2014-Jul-28 17:33N 35°35' E 139°55'0 0.0
2014-Jul-28 16:27N 35°35' E 139°55'0 0.0
2014-Jul-28 15:33N 35°35' E 139°55'0 0.0
2014-Jul-28 14:33N 35°35' E 139°55'0 0.1
2014-Jul-28 13:30N 35°35' E 139°55'0 0.0
2014-Jul-28 12:24N 35°35' E 139°55'0 0.1
2014-Jul-28 11:33N 35°35' E 139°55'3 3.0
2014-Jul-28 10:33N 35°33' E 139°57'5 5.0
2014-Jul-28 09:31N 35°29' E 140°01'0 0.0
2014-Jul-28 08:28N 35°29' E 140°01'0 0.0
2014-Jul-28 07:28N 35°29' E 140°01'0 0.0
2014-Jul-28 06:25N 35°29' E 140°01'0 0.0
2014-Jul-28 05:31N 35°29' E 140°01'0 0.0
2014-Jul-28 04:31N 35°29' E 140°01'0 0.1
2014-Jul-28 03:33N 35°29' E 140°01'8 8.3
2014-Jul-28 02:33N 35°37' E 139°58'4 3.9
2014-Jul-28 01:31N 35°41' E 139°56'0 0.0
2014-Jul-28 00:22N 35°41' E 139°56'0 0.0
2014-Jul-27 23:31N 35°41' E 139°56'0 0.0
2014-Jul-27 22:31N 35°41' E 139°56'2 1.7
2014-Jul-27 21:33N 35°39' E 139°58'5 4.4
2014-Jul-27 20:32N 35°36' E 139°55'0 0.0
2014-Jul-27 19:32N 35°35' E 139°55'0 0.1
2014-Jul-27 18:23N 35°36' E 139°55'0 0.0
2014-Jul-27 17:32N 35°36' E 139°55'0 0.0
2014-Jul-27 16:29N 35°36' E 139°55'0 0.1
2014-Jul-27 15:32N 35°36' E 139°55'0 0.0
2014-Jul-27 14:32N 35°36' E 139°55'0 0.0
2014-Jul-27 13:32N 35°36' E 139°55'0 0.0
2014-Jul-27 12:29N 35°35' E 139°55'0 0.0
2014-Jul-27 11:29N 35°35' E 139°55'1 0.7
2014-Jul-27 10:33N 35°35' E 139°54'8 7.9
2014-Jul-27 09:33N 35°30' E 139°46'1 1.0
2014-Jul-27 08:34N 35°30' E 139°45'0 0.0
2014-Jul-27 07:34N 35°30' E 139°45'0 0.0
2014-Jul-27 06:34N 35°30' E 139°45'0 0.0
2014-Jul-27 05:28N 35°30' E 139°45'0 0.0
2014-Jul-27 04:31N 35°30' E 139°45'3 3.0
2014-Jul-27 03:33N 35°27' E 139°45'5 4.6
2014-Jul-27 02:33N 35°29' E 139°50'7 7.0
2014-Jul-27 01:33N 35°35' E 139°55'6 5.7
2014-Jul-27 00:33N 35°41' E 139°56'0 0.0
2014-Jul-26 23:33N 35°41' E 139°56'0 0.0
2014-Jul-26 22:33N 35°41' E 139°56'2 1.5
2014-Jul-26 21:33N 35°39' E 139°58'4 4.0
2014-Jul-26 20:33N 35°36' E 139°55'0 0.0
2014-Jul-26 19:33N 35°36' E 139°55'0 0.0
2014-Jul-26 18:34N 35°36' E 139°55'0 0.0
2014-Jul-26 17:34N 35°36' E 139°55'0 0.0
2014-Jul-26 16:33N 35°36' E 139°55'0 0.0
2014-Jul-26 15:34N 35°36' E 139°55'0 0.0
2014-Jul-26 14:33N 35°36' E 139°55'0 0.0
2014-Jul-26 13:34N 35°36' E 139°55'0 0.0
2014-Jul-26 12:33N 35°36' E 139°55'0 0.0
2014-Jul-26 11:34N 35°36' E 139°55'0 0.0
2014-Jul-26 10:34N 35°36' E 139°55'0 0.0
2014-Jul-26 09:34N 35°36' E 139°55'7 7.1
2014-Jul-26 08:33N 35°31' E 139°49'4 3.5
2014-Jul-26 07:33N 35°30' E 139°45'0 0.0
2014-Jul-26 06:33N 35°30' E 139°45'0 0.0
2014-Jul-26 05:33N 35°30' E 139°45'3 3.4
2014-Jul-26 04:34N 35°27' E 139°43'8 8.3
2014-Jul-26 03:33N 35°31' E 139°52'9 8.8
2014-Jul-26 02:33N 35°39' E 139°58'3 2.5
2014-Jul-26 01:33N 35°41' E 139°56'0 0.0
2014-Jul-26 00:33N 35°41' E 139°56'0 0.0
2014-Jul-25 23:33N 35°41' E 139°56'0 0.0
2014-Jul-25 22:27N 35°41' E 139°56'2 2.7
2014-Jul-25 21:33N 35°39' E 139°58'4 4.0
2014-Jul-25 20:32N 35°36' E 139°55'0 0.0
2014-Jul-25 19:23N 35°36' E 139°55'0 0.0
2014-Jul-25 18:32N 35°36' E 139°55'0 0.0
2014-Jul-25 17:32N 35°36' E 139°55'0 0.0
2014-Jul-25 16:29N 35°36' E 139°55'0 0.0
2014-Jul-25 15:32N 35°36' E 139°55'0 0.0
2014-Jul-25 14:32N 35°36' E 139°55'0 0.0
2014-Jul-25 13:29N 35°36' E 139°55'0 0.0
2014-Jul-25 12:32N 35°36' E 139°55'0 0.0
2014-Jul-25 11:32N 35°36' E 139°55'0 0.0
2014-Jul-25 10:32N 35°36' E 139°55'0 0.0
2014-Jul-25 09:29N 35°36' E 139°55'0 0.0
2014-Jul-25 08:26N 35°36' E 139°55'0 0.0
2014-Jul-25 07:32N 35°36' E 139°55'0 0.0
2014-Jul-25 06:33N 35°36' E 139°55'3 2.8
2014-Jul-25 05:33N 35°33' E 139°53'7 6.7
2014-Jul-25 04:31N 35°30' E 139°45'0 0.0
2014-Jul-25 03:31N 35°30' E 139°45'0 0.0
2014-Jul-25 02:31N 35°30' E 139°45'0 0.0
2014-Jul-25 01:31N 35°30' E 139°45'0 0.0
2014-Jul-25 00:31N 35°30' E 139°45'4 3.8
2014-Jul-24 23:33N 35°27' E 139°43'4 3.5
2014-Jul-24 22:32N 35°29' E 139°39'0 0.0
2014-Jul-24 21:32N 35°29' E 139°39'0 0.0
2014-Jul-24 20:32N 35°29' E 139°39'0 0.0
2014-Jul-24 19:32N 35°29' E 139°39'0 0.0
2014-Jul-24 18:32N 35°29' E 139°39'0 0.0
2014-Jul-24 17:32N 35°29' E 139°39'0 0.0
2014-Jul-24 16:32N 35°29' E 139°39'0 0.0
2014-Jul-24 15:32N 35°29' E 139°39'0 0.0
2014-Jul-24 14:32N 35°29' E 139°39'0 0.0
2014-Jul-24 13:32N 35°29' E 139°39'0 0.0
2014-Jul-24 12:32N 35°29' E 139°39'0 0.0
2014-Jul-24 11:32N 35°29' E 139°39'0 0.0
2014-Jul-24 10:32N 35°29' E 139°39'0 0.0
2014-Jul-24 09:32N 35°29' E 139°39'0 0.0
2014-Jul-24 08:32N 35°29' E 139°39'0 0.0
2014-Jul-24 07:32N 35°29' E 139°39'0 0.0
2014-Jul-24 06:32N 35°29' E 139°39'0 0.0
2014-Jul-24 05:32N 35°29' E 139°39'0 0.2
2014-Jul-24 04:34N 35°28' E 139°39'9 8.5
2014-Jul-24 03:34N 35°29' E 139°50'1010.0
2014-Jul-24 02:34N 35°37' E 139°57'4 3.7
2014-Jul-24 01:29N 35°41' E 139°56'0 0.0
2014-Jul-24 00:32N 35°41' E 139°56'0 0.0
2014-Jul-23 23:32N 35°41' E 139°56'0 0.0
2014-Jul-23 22:29N 35°41' E 139°56'2 2.1
2014-Jul-23 21:33N 35°39' E 139°58'4 3.9
2014-Jul-23 20:33N 35°36' E 139°55'0 0.0
2014-Jul-23 19:30N 35°36' E 139°55'0 0.0
2014-Jul-23 18:30N 35°36' E 139°55'0 0.0
2014-Jul-23 17:33N 35°36' E 139°55'0 0.0
2014-Jul-23 16:33N 35°36' E 139°55'0 0.0
2014-Jul-23 15:33N 35°36' E 139°55'0 0.0
2014-Jul-23 14:33N 35°36' E 139°55'0 0.0
2014-Jul-23 13:33N 35°36' E 139°55'0 0.0
2014-Jul-23 12:33N 35°36' E 139°55'0 0.0
2014-Jul-23 11:30N 35°36' E 139°55'0 0.0
2014-Jul-23 10:27N 35°36' E 139°55'4 4.5
2014-Jul-23 09:33N 35°33' E 139°52'6 5.9
2014-Jul-23 08:31N 35°30' E 139°45'0 0.0
2014-Jul-23 07:31N 35°30' E 139°45'0 0.0
2014-Jul-23 06:31N 35°30' E 139°45'0 0.0
2014-Jul-23 05:31N 35°30' E 139°45'0 0.0
2014-Jul-23 04:31N 35°30' E 139°45'3 3.4
2014-Jul-23 03:33N 35°28' E 139°42'7 7.2
2014-Jul-23 02:33N 35°30' E 139°51'10 9.9
2014-Jul-23 01:33N 35°38' E 139°59'3 3.0
2014-Jul-23 00:33N 35°41' E 139°56'0 0.0
2014-Jul-22 23:33N 35°41' E 139°56'0 0.0
2014-Jul-22 22:33N 35°41' E 139°56'2 1.9
2014-Jul-22 21:33N 35°39' E 139°58'4 4.1
2014-Jul-22 20:32N 35°36' E 139°55'0 0.0
2014-Jul-22 19:26N 35°36' E 139°55'0 0.1
2014-Jul-22 18:32N 35°36' E 139°55'0 0.0
2014-Jul-22 17:32N 35°36' E 139°55'0 0.0
2014-Jul-22 16:32N 35°36' E 139°55'0 0.0
2014-Jul-22 15:26N 35°36' E 139°55'0 0.0
2014-Jul-22 14:32N 35°36' E 139°55'0 0.0
2014-Jul-22 13:29N 35°36' E 139°55'0 0.0
2014-Jul-22 12:26N 35°36' E 139°55'0 0.0
2014-Jul-22 11:32N 35°36' E 139°55'0 0.0
2014-Jul-22 10:32N 35°36' E 139°55'0 0.0
2014-Jul-22 09:33N 35°36' E 139°55'7 7.3
2014-Jul-22 08:33N 35°29' E 140°00'1 0.9
2014-Jul-22 07:27N 35°29' E 140°01'0 0.0
2014-Jul-22 06:30N 35°29' E 140°01'0 0.0
2014-Jul-22 05:33N 35°29' E 140°01'0 0.0
2014-Jul-22 04:33N 35°29' E 140°01'  

Dump ship's entire track history